Etusivu
METAR-TAF:

METAR-TAF

Lentoasemat :

Kuressaaren lentoasema

Kuressaari, Viro

Leveyspiiri: 58-13-48N, Pituuspiiri: 022-30-34E, korkeus merenpinnasta: 4 m

Tämänhetkinen sää

Tämä raportti tehtiin 12 minuuttia sitten, kello 15.50 UTC
Tuuli 3 kn luoteesta
Lämpötila 0°C
Kosteus 86%
Ilmanpaine 1031 hPa
Näkyvyys 10 km tai enemmän
Pilvistä 2000 ft:n korkeudessa

METAR: EEKE 201550Z 32003KT 9999 OVC020 00/M02 Q1031

Aika: 18:02 (16:02 UTC)

Sääennuste

Tämä raportti tehtiin 1 tunti ja 2 minuuttia sitten, kello 15.00 UTC
Ennuste voimassa 20. päivästä klo 16 UTC - 20. päivään klo 22 UTC
Tuuli 2 kn eri suunnista
Näkyvyys 10 km tai enemmän
Pilvistä 2000 ft:n korkeudessa
Todennäköisyys 40% :
Ajoittain
20. päivästä klo 17 UTC - 20. päivään klo 22 UTC
Hajonneita pilviä 1000 ft:n korkeudessa
Pilvistä 2000 ft:n korkeudessa

TAF: EEKE 201500Z 2016/2022 VRB02KT 9999 OVC020 PROB40 TEMPO 2017/2022 BKN010 OVC020

Säähavainnot ja -ennusteet yli 4000 lentoasemalta (METAR- ja TAF-raportit).

Käytössä olevat sääasemat on merkitty karttaan keltaisilla ja punaisilla pisteillä.

Aseta hiiri pisteen päälle nähdäksesi sääaseman nimen.

Klikkaa sitten nähdäksesi säähavainnot ja -ennusteet.

Kartan vaihtaminen: klikkaa mustalla rastilla varustettuja vihreitä pisteitä, niin voit zoomata sisään; viivalla varustettua vihreää pistettä, niin voit zoomata ulos tai vihreitä nuolia, niin pääset viereisille kartoille.


METAR-TAF: